Time;durP1;ratioP1;P1;durP2;ratioP2;P2;SDS_P1;SDS_P2;PMS_P1;PMS_P2;Temp;Humidity;BMP_temperature;BMP_pressure;BME280_temperature;BME280_humidity;BME280_pressure;Samples;Min_cycle;Max_cycle;Signal;HPM_P1;HPM_P2
2021/08/27 09:47:20;;;;;;;6.53;4.53;;;;;;;;;;5090840;27;20925;-71
2021/08/27 09:49:46;;;;;;;4.30;3.88;;;;;;;;;;5090816;28;20220;-71
2021/08/27 09:52:12;;;;;;;8.98;4.95;;;;;;;;;;5090791;28;20164;-71
2021/08/27 09:54:40;;;;;;;5.80;4.88;;;;;;;;;;5089492;28;20217;-72
2021/08/27 09:57:10;;;;;;;7.18;6.00;;;;;;;;;;5090696;28;20164;-71
2021/08/27 09:59:36;;;;;;;5.60;5.18;;;;;;;;;;5090706;28;20613;-72
2021/08/27 10:02:03;;;;;;;7.63;5.55;;;;;;;;;;5090585;28;20192;-72
2021/08/27 10:04:30;;;;;;;5.78;4.80;;;;;;;;;;5090536;28;20168;-71
2021/08/27 10:06:57;;;;;;;12.90;5.00;;;;;;;;;;5090470;28;20537;-72
2021/08/27 10:09:23;;;;;;;6.88;5.20;;;;;;;;;;5090527;28;20637;-71
2021/08/27 10:11:55;;;;;;;7.95;5.32;;;;;;;;;;5090467;28;20178;-72
2021/08/27 10:14:21;;;;;;;5.53;5.07;;;;;;;;;;5090357;28;20273;-72
2021/08/27 10:16:47;;;;;;;5.53;5.00;;;;;;;;;;5090303;28;20696;-71
2021/08/27 10:19:13;;;;;;;8.93;5.45;;;;;;;;;;5090196;28;20183;-72
2021/08/27 10:21:39;;;;;;;4.70;4.20;;;;;;;;;;5090203;28;20164;-72
2021/08/27 10:24:05;;;;;;;7.78;4.60;;;;;;;;;;5090146;28;20204;-71
2021/08/27 10:26:32;;;;;;;3.58;3.03;;;;;;;;;;5090096;28;20227;-72
2021/08/27 10:29:03;;;;;;;4.40;2.85;;;;;;;;;;5088719;28;20168;-71
2021/08/27 10:31:55;;;;;;;6.65;3.10;;;;;;;;;;5090052;28;20164;-72
2021/08/27 10:34:41;;;;;;;3.78;3.22;;;;;;;;;;5089729;28;20184;-72
2021/08/27 10:37:07;;;;;;;6.53;2.72;;;;;;;;;;5089883;28;20197;-71
2021/08/27 10:39:45;;;;;;;5.88;3.05;;;;;;;;;;5089900;28;20260;-71
2021/08/27 10:42:31;;;;;;;5.32;3.60;;;;;;;;;;5089987;28;20167;-72
2021/08/27 10:44:57;;;;;;;5.18;3.08;;;;;;;;;;5089525;28;20186;-72
2021/08/27 10:47:23;;;;;;;5.60;3.05;;;;;;;;;;5089735;28;20180;-72
2021/08/27 10:49:48;;;;;;;3.70;2.28;;;;;;;;;;5089603;28;20160;-72
2021/08/27 10:52:30;;;;;;;4.90;3.35;;;;;;;;;;5089558;28;20168;-72
2021/08/27 10:55:02;;;;;;;10.30;2.88;;;;;;;;;;5089582;28;20214;-73
2021/08/27 10:57:29;;;;;;;7.78;3.42;;;;;;;;;;5082889;28;20157;-72
2021/08/27 11:00:01;;;;;;;4.97;3.65;;;;;;;;;;5075972;28;20161;-72
2021/08/27 11:02:28;;;;;;;7.30;5.18;;;;;;;;;;5075942;28;20622;-72
2021/08/27 11:04:55;;;;;;;8.05;5.05;;;;;;;;;;5075750;28;20168;-72
2021/08/27 11:07:26;;;;;;;15.27;6.00;;;;;;;;;;5075843;28;20188;-72
2021/08/27 11:10:02;;;;;;;7.25;5.15;;;;;;;;;;5075916;28;20164;-72
2021/08/27 11:12:32;;;;;;;5.82;5.50;;;;;;;;;;5075646;28;20172;-72
2021/08/27 11:15:17;;;;;;;10.32;5.88;;;;;;;;;;5075753;28;20634;-72
2021/08/27 11:18:03;;;;;;;8.88;8.05;;;;;;;;;;5074258;28;20626;-72
2021/08/27 11:20:30;;;;;;;9.02;7.05;;;;;;;;;;5075733;28;20529;-72
2021/08/27 11:22:56;;;;;;;7.10;6.00;;;;;;;;;;5075540;28;20173;-72
2021/08/27 11:25:24;;;;;;;7.13;5.60;;;;;;;;;;5074204;28;20226;-72
2021/08/27 11:28:08;;;;;;;6.05;3.80;;;;;;;;;;5075513;28;20161;-72
2021/08/27 11:30:35;;;;;;;3.83;3.53;;;;;;;;;;5075508;28;20175;-72
2021/08/27 11:33:01;;;;;;;6.30;4.05;;;;;;;;;;5075452;28;20165;-72
2021/08/27 11:35:28;;;;;;;6.20;4.05;;;;;;;;;;5074046;28;20183;-72
2021/08/27 11:38:05;;;;;;;4.20;3.83;;;;;;;;;;5075310;28;20184;-72
2021/08/27 11:40:31;;;;;;;5.95;3.40;;;;;;;;;;5075380;28;20510;-72
2021/08/27 11:42:58;;;;;;;9.20;3.28;;;;;;;;;;5075577;28;20497;-72
2021/08/27 11:45:26;;;;;;;2.63;2.42;;;;;;;;;;5074905;28;20762;-73
2021/08/27 11:47:56;;;;;;;2.75;2.40;;;;;;;;;;5075128;28;20160;-72
2021/08/27 11:50:23;;;;;;;7.22;2.45;;;;;;;;;;5075089;28;20252;-72
2021/08/27 11:52:55;;;;;;;2.45;2.22;;;;;;;;;;5074986;28;20171;-72
2021/08/27 11:55:22;;;;;;;2.33;2.20;;;;;;;;;;5075049;28;20168;-72
2021/08/27 11:57:52;;;;;;;2.78;1.98;;;;;;;;;;5074951;28;20177;-72
2021/08/27 12:00:22;;;;;;;2.38;2.22;;;;;;;;;;5074917;28;20198;-72
2021/08/27 12:02:54;;;;;;;3.15;2.03;;;;;;;;;;5074821;28;20180;-72
2021/08/27 12:05:21;;;;;;;5.28;1.95;;;;;;;;;;5073463;28;20214;-72
2021/08/27 12:07:54;;;;;;;3.67;1.73;;;;;;;;;;5074669;28;20241;-72
2021/08/27 12:10:21;;;;;;;3.40;1.48;;;;;;;;;;5073723;28;20683;-72
2021/08/27 12:12:48;;;;;;;2.15;2.00;;;;;;;;;;5074654;28;20222;-72
2021/08/27 12:15:15;;;;;;;4.38;2.17;;;;;;;;;;5074479;28;20183;-72
2021/08/27 12:17:56;;;;;;;5.53;1.70;;;;;;;;;;5074534;28;20614;-72
2021/08/27 12:20:27;;;;;;;1.60;1.50;;;;;;;;;;5074479;28;20176;-72
2021/08/27 12:22:59;;;;;;;2.28;1.63;;;;;;;;;;5074414;28;20175;-72
2021/08/27 12:25:28;;;;;;;3.33;2.20;;;;;;;;;;5074311;28;20290;-72
2021/08/27 12:27:55;;;;;;;4.55;1.95;;;;;;;;;;5074375;28;20165;-72
2021/08/27 12:30:21;;;;;;;3.60;2.00;;;;;;;;;;5074286;28;20306;-72
2021/08/27 12:32:48;;;;;;;6.50;3.45;;;;;;;;;;5074214;28;20165;-72
2021/08/27 12:35:16;;;;;;;3.72;2.28;;;;;;;;;;5072851;28;20557;-72
2021/08/27 12:37:42;;;;;;;2.38;2.10;;;;;;;;;;5074138;28;20189;-72
2021/08/27 12:40:09;;;;;;;4.15;1.73;;;;;;;;;;5074562;28;20255;-72
2021/08/27 12:42:35;;;;;;;3.45;2.35;;;;;;;;;;5074332;28;20168;-72
2021/08/27 12:45:10;;;;;;;6.38;3.63;;;;;;;;;;5073759;28;20222;-72
2021/08/27 12:47:38;;;;;;;4.53;3.83;;;;;;;;;;5073980;28;20266;-72
2021/08/27 12:50:09;;;;;;;4.78;3.80;;;;;;;;;;5073908;28;20187;-72
2021/08/27 12:52:35;;;;;;;3.85;3.50;;;;;;;;;;5073920;28;20169;-72
2021/08/27 12:55:01;;;;;;;4.93;2.97;;;;;;;;;;5073792;28;20161;-72
2021/08/27 12:57:27;;;;;;;6.38;3.80;;;;;;;;;;5073797;28;20165;-72
2021/08/27 12:59:57;;;;;;;5.05;2.97;;;;;;;;;;5073732;28;20168;-72
2021/08/27 13:02:23;;;;;;;7.88;3.78;;;;;;;;;;5073686;28;20164;-72
2021/08/27 13:04:51;;;;;;;3.90;3.53;;;;;;;;;;5073820;28;20171;-72
2021/08/27 13:07:24;;;;;;;6.13;3.88;;;;;;;;;;5072290;28;20200;-72
2021/08/27 13:09:50;;;;;;;7.88;3.35;;;;;;;;;;5073603;28;20679;-72
2021/08/27 13:12:28;;;;;;;5.93;3.20;;;;;;;;;;5072327;28;20180;-72
2021/08/27 13:14:57;;;;;;;2.78;2.40;;;;;;;;;;5072258;28;20650;-72
2021/08/27 13:17:23;;;;;;;4.90;2.58;;;;;;;;;;5073528;28;20172;-72
2021/08/27 13:19:58;;;;;;;2.63;2.42;;;;;;;;;;5073153;28;20168;-72
2021/08/27 13:22:27;;;;;;;4.25;2.35;;;;;;;;;;5073463;28;20225;-72
2021/08/27 13:24:57;;;;;;;4.43;2.30;;;;;;;;;;5073393;28;20650;-72
2021/08/27 13:27:23;;;;;;;4.78;2.10;;;;;;;;;;5071959;28;20210;-72
2021/08/27 13:29:49;;;;;;;5.30;2.17;;;;;;;;;;5073371;28;20184;-72
2021/08/27 13:32:19;;;;;;;3.70;2.25;;;;;;;;;;5073237;28;20164;-72
2021/08/27 13:34:45;;;;;;;3.08;2.03;;;;;;;;;;5073261;28;20168;-72
2021/08/27 13:37:11;;;;;;;5.15;1.70;;;;;;;;;;5073236;28;20531;-72
2021/08/27 13:39:37;;;;;;;2.35;1.70;;;;;;;;;;5073234;28;20172;-72
2021/08/27 13:42:03;;;;;;;3.45;1.80;;;;;;;;;;5073168;28;20177;-72
2021/08/27 13:44:29;;;;;;;3.90;1.90;;;;;;;;;;5073126;28;20196;-72
2021/08/27 13:46:55;;;;;;;3.10;1.95;;;;;;;;;;5071671;28;20743;-71
2021/08/27 13:49:21;;;;;;;2.10;1.95;;;;;;;;;;5073171;28;20176;-72
2021/08/27 13:51:47;;;;;;;3.72;2.33;;;;;;;;;;5073138;28;20252;-72
2021/08/27 13:54:13;;;;;;;4.50;2.75;;;;;;;;;;5073117;28;20184;-72
2021/08/27 13:56:39;;;;;;;3.33;2.70;;;;;;;;;;5073107;28;20172;-72
2021/08/27 13:59:05;;;;;;;2.55;2.20;;;;;;;;;;5073125;28;20672;-71
2021/08/27 14:01:31;;;;;;;4.75;2.35;;;;;;;;;;5072885;28;25116;-72
2021/08/27 14:03:57;;;;;;;2.10;2.00;;;;;;;;;;5073089;28;20262;-72
2021/08/27 14:06:23;;;;;;;3.70;3.00;;;;;;;;;;5072834;28;20757;-72
2021/08/27 14:08:49;;;;;;;2.97;2.83;;;;;;;;;;5073118;28;20226;-72
2021/08/27 14:11:15;;;;;;;4.20;3.80;;;;;;;;;;5073009;28;20173;-72
2021/08/27 14:13:41;;;;;;;4.03;3.72;;;;;;;;;;5072937;28;20207;-72
2021/08/27 14:16:07;;;;;;;4.10;3.85;;;;;;;;;;5072864;28;20645;-72
2021/08/27 14:18:34;;;;;;;5.18;4.05;;;;;;;;;;5072852;28;20168;-72
2021/08/27 14:21:00;;;;;;;4.18;3.88;;;;;;;;;;5073136;28;20165;-72
2021/08/27 14:23:28;;;;;;;3.80;3.42;;;;;;;;;;5072901;28;20626;-72
2021/08/27 14:25:54;;;;;;;3.65;3.35;;;;;;;;;;5071504;28;20649;-72
2021/08/27 14:28:20;;;;;;;4.40;2.72;;;;;;;;;;5072804;28;20531;-72
2021/08/27 14:30:48;;;;;;;3.15;2.55;;;;;;;;;;5073016;28;20566;-72
2021/08/27 14:33:14;;;;;;;3.58;2.15;;;;;;;;;;5074986;28;20196;-72
2021/08/27 14:35:40;;;;;;;1.98;1.88;;;;;;;;;;5076462;28;20199;-72
2021/08/27 14:38:06;;;;;;;4.80;2.00;;;;;;;;;;5076478;28;20164;-72
2021/08/27 14:40:32;;;;;;;6.18;2.83;;;;;;;;;;5076348;28;20638;-72
2021/08/27 14:42:57;;;;;;;6.05;2.20;;;17.10;99.90;;;;;;5076164;28;20243;-72
2021/08/27 14:45:23;;;;;;;2.63;2.10;;;17.00;99.90;;;;;;5076015;28;20751;-72
2021/08/27 14:47:49;;;;;;;6.47;2.72;;;16.70;99.90;;;;;;5076241;28;20168;-72
2021/08/27 14:50:14;;;;;;;3.65;2.53;;;16.60;99.90;;;;;;5076165;28;20175;-72
2021/08/27 14:52:40;;;;;;;7.88;3.65;;;16.30;99.90;;;;;;5076105;28;20225;-72
2021/08/27 14:55:06;;;;;;;5.43;3.45;;;16.00;99.90;;;;;;5076104;28;20626;-72
2021/08/27 14:57:32;;;;;;;3.88;3.13;;;15.60;99.90;;;;;;5076189;28;20200;-73
2021/08/27 14:59:58;;;;;;;3.10;2.80;;;15.60;99.90;;;;;;5076468;28;20706;-72
2021/08/27 15:02:23;;;;;;;2.97;2.65;;;15.30;99.90;;;;;;5076116;28;20255;-72
2021/08/27 15:04:49;;;;;;;4.53;2.75;;;15.00;99.90;;;;;;5075880;28;20167;-72
2021/08/27 15:07:14;;;;;;;6.30;2.90;;;15.20;99.90;;;;;;5075814;28;20657;-72
2021/08/27 15:09:40;;;;;;;3.35;2.70;;;15.00;99.90;;;;;;5075897;28;20211;-72
2021/08/27 15:12:06;;;;;;;2.78;2.60;;;15.10;99.90;;;;;;5075832;28;20164;-73
2021/08/27 15:14:33;;;;;;;5.72;3.10;;;15.20;99.90;;;;;;5074571;28;20579;-73
2021/08/27 15:16:58;;;;;;;2.80;2.58;;;15.10;99.90;;;;;;5075842;28;20172;-73
2021/08/27 15:19:24;;;;;;;4.38;3.33;;;15.20;99.90;;;;;;5074529;28;20230;-73
2021/08/27 15:21:50;;;;;;;4.93;4.30;;;15.10;99.90;;;;;;5075752;28;20168;-73
2021/08/27 15:24:16;;;;;;;6.32;3.38;;;15.10;99.90;;;;;;5075692;28;20168;-74
2021/08/27 15:26:42;;;;;;;4.72;3.67;;;14.90;99.90;;;;;;5075550;28;20192;-73
2021/08/27 15:29:08;;;;;;;6.93;4.30;;;14.90;99.90;;;;;;5074275;28;20171;-73
2021/08/27 15:31:37;;;;;;;3.67;3.38;;;15.30;99.90;;;;;;5075479;28;20169;-73
2021/08/27 15:34:03;;;;;;;4.05;3.58;;;14.90;99.90;;;;;;5075533;28;20172;-72
2021/08/27 15:36:29;;;;;;;7.90;5.10;;;15.30;99.90;;;;;;5075133;28;20263;-73
2021/08/27 15:38:56;;;;;;;5.53;5.00;;;15.20;99.90;;;;;;5075326;28;20200;-73
2021/08/27 15:41:22;;;;;;;8.02;4.45;;;15.50;99.90;;;;;;5075130;28;20206;-73
2021/08/27 15:43:47;;;;;;;4.65;3.85;;;15.10;99.90;;;;;;5074988;28;20182;-72
2021/08/27 15:46:13;;;;;;;3.05;2.85;;;15.80;99.90;;;;;;5073589;28;20369;-73
2021/08/27 15:48:38;;;;;;;4.15;3.60;;;15.40;99.90;;;;;;5075167;28;20176;-73
2021/08/27 15:51:04;;;;;;;8.35;3.83;;;15.90;99.90;;;;;;5075044;28;20173;-73
2021/08/27 15:53:34;;;;;;;3.78;2.88;;;16.20;99.90;;;;;;5074902;28;20184;-72
2021/08/27 15:55:59;;;;;;;4.35;2.90;;;16.50;99.90;;;;;;5074984;28;20191;-72
2021/08/27 15:58:25;;;;;;;6.15;3.28;;;16.80;99.90;;;;;;5073637;28;20257;-72
2021/08/27 16:00:51;;;;;;;5.13;3.30;;;16.40;99.90;;;;;;5074852;28;20176;-72
2021/08/27 16:03:16;;;;;;;4.75;3.25;;;16.70;99.90;;;;;;5074825;28;20177;-72
2021/08/27 16:05:42;;;;;;;3.13;2.92;;;16.20;99.90;;;;;;5074683;28;20196;-72
2021/08/27 16:08:08;;;;;;;6.13;4.07;;;16.40;99.90;;;;;;5073446;28;20175;-72
2021/08/27 16:10:39;;;;;;;3.95;3.17;;;16.40;99.90;;;;;;5074575;28;20178;-72
2021/08/27 16:13:05;;;;;;;4.63;4.03;;;16.50;99.90;;;;;;5073378;28;20259;-72
2021/08/27 16:15:31;;;;;;;4.90;3.78;;;17.00;99.90;;;;;;5074622;28;20263;-72
2021/08/27 16:17:56;;;;;;;7.10;3.90;;;17.00;99.90;;;;;;5074539;28;20175;-72
2021/08/27 16:20:22;;;;;;;4.40;3.95;;;16.50;99.90;;;;;;5074498;28;20200;-72
2021/08/27 16:22:47;;;;;;;7.30;3.88;;;16.60;99.90;;;;;;5074426;28;20172;-72
2021/08/27 16:25:14;;;;;;;7.55;3.83;;;16.30;99.90;;;;;;5074276;28;20242;-73
2021/08/27 16:27:40;;;;;;;10.23;4.57;;;16.60;99.90;;;;;;5074306;28;20164;-72
2021/08/27 16:30:07;;;;;;;10.38;5.97;;;16.00;99.90;;;;;;5074279;28;20164;-73
2021/08/27 16:32:32;;;;;;;4.85;2.80;;;15.90;99.90;;;;;;5074128;28;20172;-73
2021/08/27 16:34:58;;;;;;;31.30;4.00;;;15.90;99.90;;;;;;5074211;28;20156;-73
2021/08/27 16:37:23;;;;;;;2.40;1.95;;;15.20;99.90;;;;;;5074112;28;20567;-72
2021/08/27 16:39:49;;;;;;;4.60;2.50;;;14.60;99.90;;;;;;5072878;28;20172;-72
2021/08/27 17:24:18;;;;;;;4.90;2.50;;;13.30;99.90;;;;;;5070647;28;20603;-71
2021/08/27 17:26:43;;;;;;;8.10;2.83;;;13.30;99.90;;;;;;5070754;28;20176;-71
2021/08/27 17:29:10;;;;;;;4.28;2.58;;;;;;;;;;5070583;28;20168;-71
2021/08/27 17:31:37;;;;;;;4.32;2.78;;;13.30;99.90;;;;;;5070513;28;20165;-71
2021/08/27 17:34:05;;;;;;;7.45;3.03;;;13.30;99.90;;;;;;5070503;28;20221;-72
2021/08/27 17:36:33;;;;;;;6.97;2.78;;;13.30;99.90;;;;;;5069374;28;20199;-72
2021/08/27 17:39:00;;;;;;;3.15;2.55;;;13.20;99.90;;;;;;5070372;28;20164;-71
2021/08/27 17:41:28;;;;;;;3.05;2.78;;;13.40;99.90;;;;;;5070292;28;20175;-72
2021/08/27 17:43:56;;;;;;;4.60;2.92;;;;;;;;;;5070238;28;20199;-72
2021/08/27 17:46:24;;;;;;;13.35;3.90;;;13.40;99.90;;;;;;5068753;28;20284;-72
2021/08/27 17:48:52;;;;;;;6.60;3.28;;;13.30;99.90;;;;;;5070167;28;20714;-72
2021/08/27 17:51:20;;;;;;;2.78;2.60;;;;;;;;;;5070189;28;20164;-72
